Flight Track Log - Related Links

Times and Time Zones

All times are in EDT time to prevent confusion due to time zone crossing. See the N724AE flight status page for this flight to view local times or setup timezone preferences in your user account.

Time Position Orientation Groundspeed Altitude Reporting Facility
EDT Latitude Longitude Course Direction KTS MPH feet Rate Location/Type
Fri 02:45:49 PM 41.8706 -91.6344 197° South 183 211 3,700  Level Chicago Center
Fri 02:46:00 PM 41.6832 -91.7701 197° South  Level FlightAware Approximate
Fri 02:46:51 PM 41.8019 -91.6439 186° South 225 259 6,400  Level Chicago Center
Fri 02:47:00 PM 41.5867 -91.8156 194° South  Level FlightAware Approximate
Fri 02:47:53 PM 41.7294 -91.6758 198° South 262 302 8,800  Level Chicago Center
Fri 02:48:00 PM 41.4874 -91.8538 193° South  Level FlightAware Approximate
Fri 02:48:55 PM 41.6542 -91.7094 198° South 280 322 10,900  Level Chicago Center
Fri 02:49:00 PM 41.3863 -91.8841 193° South  Level FlightAware Approximate
Fri 02:49:57 PM 41.5658 -91.7431 196° South 321 369 12,400  Level Chicago Center
Fri 02:50:00 PM 41.2840 -91.9203 197° South  Level FlightAware Approximate
Fri 02:50:59 PM 41.4728 -91.7811 197° South 345 397 14,200  Level Chicago Center
Fri 02:52:01 PM 41.3567 -91.8269 197° South 361 415 16,300 1,824 Climbing Chicago Center
Fri 02:53:04 PM 41.2592 -91.8658 197° South 366 421 18,000 1,776 Climbing Chicago Center
Fri 02:54:06 PM 41.1575 -91.9078 197° South 373 429 20,000 1,887 Climbing Chicago Center
Fri 02:55:08 PM 41.0569 -91.9464 196° South 376 433 21,900 1,839 Climbing Chicago Center
Fri 02:56:10 PM 40.9578 -91.9867 197° South 375 432 23,800 1,790 Climbing Chicago Center
Fri 02:57:12 PM 40.8550 -92.0261 196° South 384 442 25,600 1,839 Climbing Chicago Center
Fri 02:58:14 PM 40.7331 -92.0756 197° South 384 442 27,600 1,790 Climbing Chicago Center
Fri 02:59:16 PM 40.6317 -92.1139 196° South 382 440 29,300 1,358 Climbing Chicago Center
Fri 03:00:00 PM 40.5692 -92.1386 197° South 383 441 30,000 1,500 Climbing Kansas City Center
Fri 03:01:04 PM 40.4433 -92.1869 196° South 390 449 32,000 1,571 Climbing Kansas City Center
Fri 03:02:06 PM 40.3364 -92.2289 197° South 396 456 33,300 1,328 Climbing Kansas City Center
Fri 03:03:06 PM 40.2258 -92.2711 196° South 404 465 34,700 1,161 Climbing Kansas City Center
Fri 03:04:10 PM 40.1144 -92.3150 197° South 409 471 35,700 624 Climbing Kansas City Center
Fri 03:05:11 PM 40.0003 -92.3581 196° South 419 482 36,000 144 Climbing Kansas City Center
Fri 03:06:15 PM 39.8861 -92.4028 197° South 425 489 36,000  Level Kansas City Center
Fri 03:07:15 PM 39.7708 -92.4453 196° South 430 495 36,000  Level Kansas City Center
Fri 03:08:18 PM 39.6344 -92.5003 197° South 429 494 36,000  Level Kansas City Center
Fri 03:09:20 PM 39.5194 -92.5442 196° South 433 498 36,000  Level Kansas City Center
Fri 03:10:21 PM 39.4050 -92.5853 196° South 431 496 36,000  Level Kansas City Center
Fri 03:11:24 PM 39.2892 -92.6275 196° South 433 498 36,000  Level Kansas City Center
Fri 03:12:24 PM 39.1681 -92.6747 197° South 431 496 36,000  Level Kansas City Center
Fri 03:13:28 PM 39.0522 -92.7189 196° South 432 497 36,000  Level Kansas City Center
Fri 03:14:29 PM 38.9128 -92.7708 196° South 433 498 36,000  Level Kansas City Center
Fri 03:15:32 PM 38.7969 -92.8131 196° South 432 497 36,000  Level Kansas City Center
Fri 03:16:33 PM 38.6819 -92.8558 196° South 430 495 36,000  Level Kansas City Center
Fri 03:17:36 PM 38.5669 -92.8983 196° South 430 495 36,000  Level Kansas City Center
Fri 03:18:37 PM 38.4531 -92.9403 196° South 428 493 36,000  Level Kansas City Center
Fri 03:19:41 PM 38.3383 -92.9811 196° South 427 491 36,000  Level Kansas City Center
Fri 03:20:41 PM 38.2014 -93.0311 196° South 428 493 36,000  Level Kansas City Center
Fri 03:21:45 PM 38.0878 -93.0731 196° South 427 491 36,000  Level Kansas City Center
Fri 03:22:46 PM 37.9725 -93.1142 196° South 429 494 36,000  Level Kansas City Center
Fri 03:23:47 PM 37.8569 -93.1556 196° South 432 497 36,000  Level Kansas City Center
Fri 03:24:51 PM 37.7419 -93.1978 196° South 431 496 36,000  Level Kansas City Center
Fri 03:25:52 PM 37.6258 -93.2372 195° South 432 497 36,000  Level Kansas City Center
Fri 03:26:55 PM 37.4878 -93.2889 197° South 432 497 36,000  Level Kansas City Center
Fri 03:27:56 PM 37.3722 -93.3283 195° South 431 496 36,000  Level Kansas City Center
Fri 03:28:59 PM 37.2683 -93.3975 208° Southwest 427 491 36,000  Level Kansas City Center
Fri 03:30:00 PM 37.1661 -93.4700 209° Southwest 422 486 36,000 -295 Level Kansas City Center
Fri 03:31:01 PM 37.0639 -93.5425 210° Southwest 421 484 35,400 -480 Descending Kansas City Center
Fri 03:32:05 PM 36.9619 -93.6167 210° Southwest 423 487 35,000 -192 Descending Kansas City Center
Fri 03:33:06 PM 36.8378 -93.7028 209° Southwest 429 494 35,000  Level Kansas City Center
Fri 03:34:09 PM 36.7339 -93.7772 210° Southwest 431 496 35,000  Level Kansas City Center
Fri 03:35:10 PM 36.6397 -93.8428 209° Southwest 429 494 35,000  Level Kansas City Center
Fri 03:36:13 PM 36.5147 -93.9311 210° Southwest 429 494 35,000  Level Kansas City Center
Fri 03:37:14 PM 36.4128 -94.0039 210° Southwest 424 488 35,000  Level Kansas City Center
Fri 03:38:17 PM 36.3225 -94.0664 209° Southwest 426 490 35,000  Level Kansas City Center
Fri 03:38:32 PM 36.2819 -94.0978 212° Southwest 434 499 35,000  Level Memphis Center
Fri 03:39:32 PM 36.1681 -94.1389 196° South 428 493 35,000  Level Memphis Center
Fri 03:40:32 PM 36.0464 -94.1589 188° South 428 493 35,000  Level Memphis Center
Fri 03:41:32 PM 35.9250 -94.1814 189° South 440 506 35,000  Level Memphis Center
Fri 03:42:32 PM 35.8033 -94.2042 189° South 445 512 35,000  Level Memphis Center
Fri 03:43:32 PM 35.6839 -94.2242 188° South 445 512 35,000  Level Memphis Center
Fri 03:44:32 PM 35.5622 -94.2414 187° South 445 512 35,000  Level Memphis Center
Fri 03:45:32 PM 35.4428 -94.2614 188° South 445 512 35,000  Level Memphis Center
Fri 03:47:04 PM 35.2822 -94.3872 213° Southwest 421 484 35,000  Level Fort Worth Center
Fri 03:48:04 PM 35.1947 -94.4844 222° Southwest 421 484 35,000  Level Fort Worth Center
Fri 03:49:04 PM 35.1094 -94.5786 222° Southwest 421 484 35,000  Level Fort Worth Center
Fri 03:50:04 PM 35.0239 -94.6703 221° Southwest 421 484 35,000  Level Fort Worth Center
Fri 03:51:04 PM 34.9403 -94.7617 222° Southwest 421 484 35,000  Level Fort Worth Center
Fri 03:52:04 PM 34.8606 -94.8450 221° Southwest 421 484 35,000  Level Fort Worth Center
Fri 03:53:04 PM 34.7769 -94.9386 223° Southwest 421 484 35,000  Level Fort Worth Center
Fri 03:54:04 PM 34.6911 -95.0269 220° Southwest 421 484 35,000 -150 Level Fort Worth Center
Fri 03:55:04 PM 34.6072 -95.1175 222° Southwest 415 478 34,700 -650 Descending Fort Worth Center
Fri 03:56:04 PM 34.5192 -95.2108 221° Southwest 415 478 33,700 -1,000 Descending Fort Worth Center
Fri 03:57:04 PM 34.4311 -95.3036 221° Southwest 415 478 32,700 -1,250 Descending Fort Worth Center
Fri 03:58:04 PM 34.3286 -95.4117 221° Southwest 437 503 31,200 -1,500 Descending Fort Worth Center
Fri 03:59:04 PM 34.2383 -95.5067 221° Southwest 437 503 29,700 -1,450 Descending Fort Worth Center
Fri 04:00:04 PM 34.1561 -95.5914 220° Southwest 437 503 28,300 -1,500 Descending Fort Worth Center
Fri 04:01:04 PM 34.0594 -95.6936 221° Southwest 437 503 26,700 -1,600 Descending Fort Worth Center
Fri 04:02:04 PM 33.9667 -95.7881 220° Southwest 427 491 25,100 -2,000 Descending Fort Worth Center
Fri 04:03:04 PM 33.8697 -95.8750 217° Southwest 433 498 22,700 -2,500 Descending Fort Worth Center
Fri 04:04:04 PM 33.7831 -95.9564 218° Southwest 439 505 20,100 -2,650 Descending Fort Worth Center
Fri 04:05:04 PM 33.6858 -96.0481 218° Southwest 434 499 17,400 -2,600 Descending Fort Worth Center
Fri 04:06:04 PM 33.6053 -96.1217 217° Southwest 408 470 14,900 -2,550 Descending Fort Worth Center
Fri 04:07:04 PM 33.5144 -96.2075 218° Southwest 395 455 12,300 -1,900 Descending Fort Worth Center
Fri 04:08:04 PM 33.4439 -96.2708 217° Southwest 362 417 11,100 -650 Descending Fort Worth Center
Fri 04:09:04 PM 33.3800 -96.3511 226° Southwest 326 375 11,000 -200 Descending Fort Worth Center
Fri 04:10:04 PM 33.3431 -96.4289 240° Southwest 308 354 10,700 -700 Descending Fort Worth Center
Fri 04:11:04 PM 33.3103 -96.5286 249° West 298 343 9,600 -1,000 Descending Fort Worth Center
Fri 04:12:04 PM 33.2817 -96.6183 249° West 293 337 8,700 -950 Descending Fort Worth Center
Fri 04:13:04 PM 33.2592 -96.6931 250° West 288 331 7,700 -1,350 Descending Fort Worth Center
Fri 04:14:04 PM 33.2347 -96.7875 253° West 283 326 6,000 -1,350 Descending Fort Worth Center
Fri 04:15:04 PM 33.2081 -96.8722 249° West 276 318 5,000 -800 Descending Fort Worth Center
Fri 04:16:04 PM 33.1769 -96.9444 243° Southwest 259 298 4,400 -800 Descending Fort Worth Center
Fri 04:17:04 PM 33.1208 -96.9917 215° Southwest 253 291 3,400 -977 Descending Fort Worth Center
Fri 04:17:30 PM 33.1000 -97.0167 225° Southwest 246 283 3,000 -923 Descending Dallas / Fort Worth TRACON

Login

Don't have an account? Register now (free) for customized features, flight alerts, and more!